Time;durP1;ratioP1;P1;durP2;ratioP2;P2;SDS_P1;SDS_P2;PMS_P1;PMS_P2;Temp;Humidity;BMP_temperature;BMP_pressure;BME280_temperature;BME280_humidity;BME280_pressure;Samples;Min_cycle;Max_cycle;Signal;HPM_P1;HPM_P2
2023/07/28 00:00:15;;;;;;;5.57;1.40;;;;;;;17.52;84.60;94349.47;5097245;28;20024;-83
2023/07/28 00:02:40;;;;;;;5.63;1.80;;;;;;;17.59;83.96;94342.94;5115812;28;20093;-84
2023/07/28 00:05:06;;;;;;;5.03;1.60;;;;;;;17.56;86.60;94352.28;5081067;28;20134;-84
2023/07/28 00:07:33;;;;;;;2.63;1.55;;;;;;;17.55;81.16;94352.56;5097565;28;20397;-83
2023/07/28 00:10:18;;;;;;;4.65;1.88;;;;;;;16.97;82.09;94342.81;5096536;28;20355;-83
2023/07/28 00:13:02;;;;;;;4.68;1.85;;;;;;;16.54;90.94;94341.59;5115581;28;20103;-83
2023/07/28 00:15:27;;;;;;;4.70;1.42;;;;;;;16.33;92.28;94347.44;5097364;28;20432;-83
2023/07/28 00:20:37;;;;;;;4.47;1.77;;;;;;;16.59;94.96;94344.13;5099405;28;20089;-83
2023/07/28 00:23:21;;;;;;;3.25;1.67;;;;;;;16.58;94.20;94344.41;5097456;28;20031;-83
2023/07/28 00:25:46;;;;;;;7.60;2.15;;;;;;;16.80;90.40;94343.56;5115541;28;20031;-84
2023/07/28 00:28:12;;;;;;;5.65;1.95;;;;;;;16.58;89.55;94339.13;5097628;28;20023;-84
2023/07/28 00:33:59;;;;;;;7.40;1.98;;;;;;;16.50;92.32;94330.06;5114211;28;20093;-83
2023/07/28 00:36:24;;;;;;;7.35;1.77;;;;;;;16.44;89.36;94324.16;5115168;28;20023;-82
2023/07/28 00:38:50;;;;;;;6.28;2.00;;;;;;;16.44;90.81;94321.50;5079576;28;20026;-83
2023/07/28 00:43:59;;;;;;;5.68;1.92;;;;;;;16.68;88.53;94329.03;5099637;28;20530;-84
2023/07/28 00:46:24;;;;;;;9.68;1.80;;;;;;;16.59;90.74;94322.97;5115187;28;20027;-83
2023/07/28 00:48:50;;;;;;;4.75;1.70;;;;;;;16.70;86.83;94326.09;5115068;28;20055;-82
2023/07/28 00:51:15;;;;;;;5.10;1.73;;;;;;;16.73;86.43;94320.19;5115172;28;20455;-82
2023/07/28 00:53:41;;;;;;;3.80;1.63;;;;;;;16.65;85.27;94316.44;5096861;28;20027;-83
2023/07/28 00:56:07;;;;;;;6.68;1.85;;;;;;;16.78;77.68;94312.09;5114988;28;20085;-82
2023/07/28 00:59:10;;;;;;;6.75;1.83;;;;;;;16.80;76.97;94309.16;5096881;28;20110;-83
2023/07/28 01:01:35;;;;;;;6.38;1.80;;;;;;;16.94;73.25;94304.53;5114847;28;20145;-83
2023/07/28 01:04:01;;;;;;;4.45;1.88;;;;;;;17.07;71.48;94300.22;5080124;28;20519;-84
2023/07/28 01:06:51;;;;;;;5.40;1.98;;;;;;;17.20;71.63;94303.81;5096306;28;20054;-84
2023/07/28 01:09:57;;;;;;;5.78;2.00;;;;;;;17.26;70.16;94303.66;5072592;28;20556;-83
2023/07/28 01:12:23;;;;;;;3.78;1.80;;;;;;;17.12;73.90;94311.75;5096677;28;20068;-83
2023/07/28 01:14:49;;;;;;;5.65;2.00;;;;;;;17.00;76.41;94307.03;5096532;28;20031;-84
2023/07/28 01:17:33;;;;;;;3.55;1.80;;;;;;;17.06;76.19;94306.59;5115123;28;20348;-84
2023/07/28 01:20:17;;;;;;;4.22;1.73;;;;;;;17.12;74.40;94296.63;5114948;28;20444;-84
2023/07/28 01:22:56;;;;;;;5.78;2.17;;;;;;;16.74;75.48;94303.22;5119149;28;20038;-83
2023/07/28 01:25:36;;;;;;;5.18;2.05;;;;;;;16.59;77.50;94301.81;5117960;28;20356;-83
2023/07/28 01:28:21;;;;;;;4.63;1.88;;;;;;;16.95;76.35;94294.72;5100718;28;20053;-83
2023/07/28 01:30:46;;;;;;;5.88;2.22;;;;;;;16.81;74.64;94295.63;5100016;28;20027;-83
2023/07/28 01:33:12;;;;;;;3.17;1.70;;;;;;;16.42;80.83;94299.88;5100765;28;20057;-84
2023/07/28 01:35:38;;;;;;;5.28;1.55;;;;;;;16.53;78.96;94290.59;5100398;28;20073;-83
2023/07/28 01:38:03;;;;;;;3.78;1.85;;;;;;;16.67;76.71;94302.91;5100870;28;20035;-84
2023/07/28 01:40:48;;;;;;;4.43;2.10;;;;;;;16.80;78.20;94307.31;5099719;28;20114;-84
2023/07/28 01:43:32;;;;;;;6.53;2.00;;;;;;;16.53;77.57;94311.75;5100301;28;20031;-83
2023/07/28 01:45:57;;;;;;;4.70;2.03;;;;;;;16.03;80.77;94290.84;5118364;28;20027;-83
2023/07/28 01:48:23;;;;;;;3.83;1.73;;;;;;;16.21;77.90;94295.13;5118701;28;20056;-83
2023/07/28 01:50:48;;;;;;;5.07;2.00;;;;;;;16.32;80.27;94300.13;5100478;28;20122;-84
2023/07/28 01:53:32;;;;;;;5.82;2.00;;;;;;;16.37;79.19;94297.38;5083322;28;20035;-83
2023/07/28 01:56:16;;;;;;;5.13;2.00;;;;;;;16.46;76.63;94302.69;5118654;28;20043;-83
2023/07/28 01:58:41;;;;;;;6.88;1.95;;;;;;;16.29;75.00;94298.13;5117835;28;20054;-83
2023/07/28 02:01:25;;;;;;;6.60;2.30;;;;;;;16.26;77.17;94299.50;5118531;28;20066;-84
2023/07/28 02:06:35;;;;;;;5.68;2.10;;;;;;;16.39;71.31;94311.06;5102559;28;20386;-83
2023/07/28 02:09:00;;;;;;;5.38;1.92;;;;;;;16.21;79.71;94297.00;5082528;28;20039;-83
2023/07/28 02:11:25;;;;;;;4.40;2.20;;;;;;;15.81;80.63;94301.09;5099680;28;20027;-83
2023/07/28 02:14:10;;;;;;;5.18;2.20;;;;;;;16.25;79.12;94296.09;5099717;28;20043;-83
2023/07/28 02:16:35;;;;;;;3.97;2.15;;;;;;;16.18;76.88;94295.72;5099337;28;20023;-83
2023/07/28 02:19:00;;;;;;;6.60;2.40;;;;;;;16.15;73.83;94296.34;5098875;28;20386;-84
2023/07/28 02:21:27;;;;;;;6.50;2.10;;;;;;;16.11;75.19;94292.75;5099066;28;20070;-83
2023/07/28 02:23:53;;;;;;;5.65;2.20;;;;;;;16.29;81.07;94290.97;5082987;28;20038;-83
2023/07/28 02:26:18;;;;;;;3.50;2.10;;;;;;;16.31;77.86;94291.44;5099352;28;20035;-84
2023/07/28 02:28:44;;;;;;;4.57;2.13;;;;;;;16.37;75.79;94300.03;5099289;28;20039;-83
2023/07/28 02:31:09;;;;;;;4.35;1.95;;;;;;;16.36;74.97;94298.47;5082092;28;20126;-83
2023/07/28 02:33:36;;;;;;;5.18;2.17;;;;;;;16.35;75.78;94284.44;5116832;28;20027;-83
2023/07/28 02:36:03;;;;;;;5.70;2.42;;;;;;;16.16;75.05;94281.28;5100031;28;20036;-84
2023/07/28 02:38:29;;;;;;;5.22;2.42;;;;;;;16.20;77.21;94282.97;5099693;28;20741;-83
2023/07/28 02:41:13;;;;;;;7.70;2.25;;;;;;;16.30;76.78;94286.44;5116920;28;20152;-83
2023/07/28 02:43:38;;;;;;;8.40;2.20;;;;;;;15.83;75.08;94282.31;5098891;28;20031;-82
2023/07/28 02:46:04;;;;;;;6.53;2.28;;;;;;;15.94;74.20;94274.94;5116934;28;20035;-83
2023/07/28 02:48:30;;;;;;;4.53;1.83;;;;;;;16.10;76.42;94276.09;5081343;28;20038;-83
2023/07/28 02:50:55;;;;;;;4.18;2.22;;;;;;;16.07;75.80;94273.31;5098537;28;20028;-83
2023/07/28 02:53:21;;;;;;;7.38;2.50;;;;;;;16.14;80.39;94270.22;5100161;28;20041;-83
2023/07/28 02:55:47;;;;;;;5.95;2.08;;;;;;;16.13;81.67;94273.94;5099559;28;20084;-83
2023/07/28 02:58:32;;;;;;;4.15;2.05;;;;;;;16.15;80.15;94280.47;5100617;28;20110;-83
2023/07/28 03:00:57;;;;;;;5.15;2.30;;;;;;;16.16;80.40;94281.28;5100121;28;20036;-83
2023/07/28 03:03:22;;;;;;;4.80;2.42;;;;;;;16.27;77.46;94285.19;5118913;28;20040;-84
2023/07/28 03:05:51;;;;;;;8.80;2.65;;;;;;;16.03;81.53;94294.28;5118966;28;20043;-83
2023/07/28 03:08:17;;;;;;;9.20;2.85;;;;;;;16.11;77.55;94298.03;5100390;28;20031;-83
2023/07/28 03:10:42;;;;;;;12.05;2.63;;;;;;;16.44;78.53;94304.88;5118635;28;20081;-83
2023/07/28 03:13:08;;;;;;;6.50;2.42;;;;;;;16.53;77.72;94300.38;5100193;28;20035;-84
2023/07/28 03:15:33;;;;;;;8.23;2.75;;;;;;;16.18;83.12;94302.88;5100129;28;20134;-83
2023/07/28 03:23:45;;;;;;;4.43;2.33;;;;;;;16.00;88.42;94292.25;5101063;28;20491;-83
2023/07/28 03:26:11;;;;;;;5.15;2.10;;;;;;;16.02;92.85;94303.28;5116251;28;20039;-83
2023/07/28 03:31:20;;;;;;;5.97;1.77;;;;;;;16.16;91.36;94287.31;5116199;28;20043;-83
2023/07/28 03:33:46;;;;;;;5.43;2.22;;;;;;;16.48;90.98;94288.06;5098300;28;20035;-82
2023/07/28 03:41:58;;;;;;;4.82;2.17;;;;;;;15.59;89.91;94282.66;5115941;28;20360;-83
2023/07/28 03:44:42;;;;;;;5.60;2.30;;;;;;;15.75;91.22;94283.03;5097734;28;20023;-83
2023/07/28 03:47:26;;;;;;;5.93;2.25;;;;;;;15.55;93.08;94280.59;5115886;28;20031;-83
2023/07/28 03:49:52;;;;;;;11.63;2.50;;;;;;;15.78;91.39;94275.28;5115486;28;20038;-83
2023/07/28 03:52:35;;;;;;;4.97;2.30;;;;;;;15.70;89.59;94286.56;5115172;28;20028;-82
2023/07/28 03:55:01;;;;;;;;;;;;;;;15.03;94.83;94285.47;5116050;28;20035;-82
2023/07/28 03:57:28;;;;;;;9.32;2.53;;;;;;;15.06;98.02;94283.03;5097381;28;19914;-83
2023/07/28 03:59:53;;;;;;;5.72;2.60;;;;;;;15.47;90.23;94286.59;5097469;28;20125;-83
2023/07/28 04:02:18;;;;;;;5.40;2.58;;;;;;;15.55;90.47;94285.09;5115775;28;20585;-83
2023/07/28 04:04:44;;;;;;;7.22;2.80;;;;;;;15.53;88.65;94293.31;5098421;28;20031;-83
2023/07/28 04:07:09;;;;;;;5.25;2.22;;;;;;;15.47;89.97;94286.59;5115584;28;20348;-83
2023/07/28 04:09:35;;;;;;;5.55;2.55;;;;;;;15.71;85.23;94288.16;5096793;28;20042;-83
2023/07/28 04:14:44;;;;;;;;;;;;;;;16.07;87.59;94303.16;5100642;28;20180;-83
2023/07/28 04:17:11;;;;;;;4.93;2.30;;;;;;;16.00;84.78;94300.16;5080535;28;19998;-83
2023/07/28 04:25:26;;;;;;;5.88;2.35;;;;;;;16.58;86.06;94292.31;5116259;28;20051;-83
2023/07/28 04:27:52;;;;;;;4.03;2.00;;;;;;;16.21;84.24;94289.84;5097102;28;20468;-83
2023/07/28 04:33:01;;;;;;;5.43;2.53;;;;;;;15.88;93.79;94284.06;5099308;28;20111;-82
2023/07/28 04:35:27;;;;;;;6.32;2.47;;;;;;;16.07;88.12;94289.16;5115039;28;20118;-83
2023/07/28 04:37:54;;;;;;;11.45;2.50;;;;;;;15.82;88.51;94294.72;5115338;28;20043;-82
2023/07/28 04:40:19;;;;;;;9.82;3.00;;;;;;;15.74;93.06;94310.53;5096427;28;20074;-83
2023/07/28 04:42:46;;;;;;;5.60;2.60;;;;;;;15.33;100.00;94310.41;5097149;28;20128;-82
2023/07/28 04:45:11;;;;;;;8.50;2.40;;;;;;;15.33;100.00;94305.13;5115050;28;20032;-83
2023/07/28 04:47:37;;;;;;;4.20;2.25;;;;;;;15.87;100.00;94304.41;5096920;28;20039;-83
2023/07/28 04:50:02;;;;;;;7.65;2.50;;;;;;;16.18;100.00;94308.94;5096505;28;20038;-82
2023/07/28 04:52:27;;;;;;;5.97;2.35;;;;;;;16.16;96.55;94310.34;5097132;28;20031;-82
2023/07/28 04:54:53;;;;;;;7.05;2.50;;;;;;;16.50;91.90;94301.00;5096042;28;20031;-82
2023/07/28 04:57:19;;;;;;;5.32;2.20;;;;;;;16.40;98.17;94302.81;5118908;28;20467;-83
2023/07/28 04:59:44;;;;;;;6.25;2.85;;;;;;;16.12;100.00;94291.66;5100179;28;20437;-83
2023/07/28 05:02:10;;;;;;;5.05;2.40;;;;;;;16.46;100.00;94300.81;5118820;28;20037;-83
2023/07/28 05:04:54;;;;;;;4.95;2.30;;;;;;;16.76;100.00;94303.69;5101228;28;20345;-83
2023/07/28 05:07:20;;;;;;;5.85;2.30;;;;;;;17.08;98.60;94303.63;5118738;28;20456;-82
2023/07/28 05:09:46;;;;;;;5.93;2.53;;;;;;;17.14;97.67;94298.97;5100099;28;20432;-83
2023/07/28 05:12:30;;;;;;;5.53;2.58;;;;;;;17.34;100.00;94297.59;5100627;28;20031;-83
2023/07/28 05:14:55;;;;;;;5.47;2.13;;;;;;;17.55;96.33;94310.19;5118909;28;20035;-83
2023/07/28 05:17:21;;;;;;;6.05;2.22;;;;;;;17.70;93.67;94311.59;5118541;28;20180;-83
2023/07/28 05:19:46;;;;;;;11.55;2.65;;;;;;;17.37;95.72;94313.63;5099953;28;20081;-83
2023/07/28 05:22:30;;;;;;;6.60;2.40;;;;;;;17.50;100.00;94313.78;5100433;28;20035;-83
2023/07/28 05:24:56;;;;;;;6.30;2.30;;;;;;;18.12;100.00;94319.00;5118758;28;20035;-83
2023/07/28 05:27:41;;;;;;;4.70;2.10;;;;;;;17.56;100.00;94319.69;5100240;28;20035;-83
2023/07/28 05:30:07;;;;;;;9.48;2.35;;;;;;;17.66;100.00;94314.06;5099887;28;20053;-83
2023/07/28 05:32:32;;;;;;;6.45;2.10;;;;;;;18.48;100.00;94310.63;5100759;28;20032;-83
2023/07/28 05:34:58;;;;;;;4.72;1.90;;;;;;;19.11;100.00;94300.50;5083350;28;20084;-84
2023/07/28 05:40:45;;;;;;;7.90;2.15;;;;;;;19.36;100.00;94317.34;5118259;28;20046;-84
2023/07/28 05:43:10;;;;;;;4.55;1.95;;;;;;;19.88;100.00;94305.47;5083029;28;20459;-83
2023/07/28 05:45:36;;;;;;;4.70;2.13;;;;;;;19.83;100.00;94321.66;5118736;28;20070;-84
2023/07/28 05:48:01;;;;;;;5.47;2.15;;;;;;;20.00;100.00;94325.25;5118384;28;20035;-83
2023/07/28 05:50:26;;;;;;;7.28;2.38;;;;;;;18.61;100.00;94324.78;5099836;28;20080;-84
2023/07/28 05:52:52;;;;;;;5.43;2.17;;;;;;;19.19;100.00;94331.50;5100172;28;20054;-84
2023/07/28 05:55:17;;;;;;;4.70;2.10;;;;;;;19.67;100.00;94334.00;5097761;28;20122;-83
2023/07/28 05:57:43;;;;;;;5.38;2.25;;;;;;;19.88;100.00;94332.06;5112697;27;20050;-83
2023/07/28 06:00:09;;;;;;;7.55;2.30;;;;;;;19.97;100.00;94334.66;5082873;28;20463;-84
2023/07/28 06:02:36;;;;;;;4.85;2.33;;;;;;;19.80;100.00;94337.47;5118272;28;20096;-83
2023/07/28 06:05:01;;;;;;;5.60;2.25;;;;;;;20.00;100.00;94335.91;5099514;28;20063;-83
2023/07/28 06:07:27;;;;;;;6.25;2.67;;;;;;;19.20;100.00;94335.72;5116998;28;20067;-83
2023/07/28 06:10:11;;;;;;;5.43;2.42;;;;;;;18.73;100.00;94336.59;5099379;28;20130;-83
2023/07/28 06:12:55;;;;;;;9.13;2.20;;;;;;;18.38;100.00;94332.22;5081943;28;20027;-83
2023/07/28 06:15:39;;;;;;;4.25;1.92;;;;;;;19.53;100.00;94321.75;5108160;28;20076;-82
2023/07/28 06:20:49;;;;;;;5.50;2.08;;;;;;;20.10;100.00;94340.81;5096193;28;20070;-83
2023/07/28 06:23:33;;;;;;;7.32;2.40;;;;;;;19.20;100.00;94349.00;5097141;28;20023;-82
2023/07/28 06:25:59;;;;;;;6.47;2.28;;;;;;;19.56;100.00;94346.88;5078995;28;20028;-83
2023/07/28 06:28:24;;;;;;;4.22;2.40;;;;;;;20.18;100.00;94352.47;5079221;28;20093;-82
2023/07/28 06:30:56;;;;;;;6.00;2.33;;;;;;;20.49;100.00;94349.28;5061950;28;20130;-83
2023/07/28 06:33:40;;;;;;;6.70;2.10;;;;;;;20.48;100.00;94346.97;5079019;28;20648;-83
2023/07/28 06:36:06;;;;;;;6.35;2.20;;;;;;;20.67;100.00;94356.31;5062624;28;20020;-83
2023/07/28 06:41:15;;;;;;;;;;;;;;;19.70;100.00;94354.59;5101483;28;20042;-84
2023/07/28 06:43:59;;;;;;;5.75;2.40;;;;;;;19.95;100.00;94352.06;5079659;28;20296;-84
2023/07/28 06:46:24;;;;;;;5.90;2.58;;;;;;;20.34;100.00;94353.38;5078854;28;20342;-85
2023/07/28 06:51:34;;;;;;;7.47;2.25;;;;;;;21.11;100.00;94369.88;5119137;27;20068;-84
2023/07/28 06:54:18;;;;;;;5.15;2.13;;;;;;;21.21;100.00;94368.63;5119663;27;20039;-84
2023/07/28 06:59:27;;;;;;;;;;;;;;;19.58;100.00;94379.22;5100218;28;20035;-84
2023/07/28 07:01:52;;;;;;;9.03;2.33;;;;;;;19.52;100.00;94383.16;5098942;28;20237;-84
2023/07/28 07:04:18;;;;;;;6.65;2.17;;;;;;;20.51;100.00;94374.78;5116897;28;20261;-83
2023/07/28 07:06:44;;;;;;;4.55;2.33;;;;;;;20.14;100.00;94355.00;5099101;28;20081;-84
2023/07/28 07:09:14;;;;;;;3.65;1.80;;;;;;;20.95;100.00;94355.69;5098131;28;20318;-84
2023/07/28 07:12:17;;;;;;;4.72;2.20;;;;;;;21.06;100.00;94348.78;5117145;28;20039;-84
2023/07/28 07:14:42;;;;;;;7.72;2.25;;;;;;;20.66;100.00;94354.75;5125400;27;20038;-84
2023/07/28 07:17:27;;;;;;;5.95;2.50;;;;;;;21.02;100.00;94351.34;5137596;27;20043;-83
2023/07/28 07:19:52;;;;;;;7.20;2.42;;;;;;;20.85;100.00;94356.91;5118261;27;20455;-84
2023/07/28 07:22:17;;;;;;;6.55;2.45;;;;;;;21.05;100.00;94348.00;5109238;28;20039;-83
2023/07/28 07:24:43;;;;;;;9.18;2.60;;;;;;;21.53;84.19;94341.38;5087682;28;20032;-85
2023/07/28 07:27:10;;;;;;;5.45;2.22;;;;;;;21.81;88.02;94356.63;5077873;28;20174;-84
2023/07/28 07:29:38;;;;;;;8.45;2.63;;;;;;;21.01;100.00;94373.75;5079399;28;20035;-84
2023/07/28 07:32:04;;;;;;;14.02;2.25;;;;;;;21.78;88.58;94373.31;5078152;28;20035;-83
2023/07/28 07:34:30;;;;;;;10.50;2.50;;;;;;;20.23;87.67;94368.22;5078053;28;20031;-84
2023/07/28 07:36:56;;;;;;;3.08;1.83;;;;;;;19.69;91.69;94369.75;5077873;28;20035;-83
2023/07/28 07:39:22;;;;;;;6.80;2.13;;;;;;;20.72;93.62;94380.81;5095596;28;20074;-82
2023/07/28 07:41:47;;;;;;;4.47;2.00;;;;;;;21.14;88.92;94368.44;5077226;28;20113;-83
2023/07/28 07:47:00;;;;;;;5.93;1.88;;;;;;;21.46;100.00;94373.94;5095757;28;20043;-84
2023/07/28 07:52:10;;;;;;;6.28;2.00;;;;;;;21.22;100.00;94372.84;5095916;28;20062;-84
2023/07/28 07:54:35;;;;;;;4.38;2.03;;;;;;;21.81;100.00;94385.97;5077492;28;20055;-84
2023/07/28 07:57:02;;;;;;;5.05;2.25;;;;;;;20.94;100.00;94381.50;5077577;28;20024;-84
2023/07/28 07:59:30;;;;;;;10.52;2.20;;;;;;;21.22;100.00;94385.41;5081386;27;20433;-82
2023/07/28 08:02:14;;;;;;;5.97;2.42;;;;;;;21.85;100.00;94386.84;5097036;28;20366;-82
2023/07/28 08:04:40;;;;;;;4.65;2.03;;;;;;;22.49;92.29;94396.91;5115367;28;20047;-83
2023/07/28 08:07:05;;;;;;;9.27;2.20;;;;;;;22.98;89.48;94403.81;5092534;27;20456;-83
2023/07/28 08:09:31;;;;;;;4.18;2.17;;;;;;;22.31;100.00;94402.56;5117126;27;20031;-84
2023/07/28 08:11:56;;;;;;;6.57;2.30;;;;;;;23.06;93.72;94408.22;5086599;28;20036;-83
2023/07/28 08:14:22;;;;;;;6.65;2.30;;;;;;;22.65;90.58;94405.72;5076969;28;20038;-83
2023/07/28 08:16:47;;;;;;;7.07;2.00;;;;;;;22.54;91.17;94404.69;5077063;28;20040;-83
2023/07/28 08:19:31;;;;;;;6.07;2.05;;;;;;;22.65;89.14;94405.72;5092911;28;20134;-83
2023/07/28 08:21:56;;;;;;;11.55;2.22;;;;;;;22.88;91.87;94413.94;5094639;28;20085;-82
2023/07/28 08:24:22;;;;;;;5.97;2.20;;;;;;;23.60;81.38;94405.22;5076600;28;20035;-83
2023/07/28 08:26:47;;;;;;;7.45;2.10;;;;;;;24.58;91.76;94405.22;5093979;28;20032;-83
2023/07/28 08:29:13;;;;;;;2.92;1.63;;;;;;;25.18;98.73;94408.47;5092977;28;20035;-83
2023/07/28 08:31:38;;;;;;;7.80;2.10;;;;;;;24.92;85.89;94418.03;5094560;28;20152;-84
2023/07/28 08:34:03;;;;;;;5.03;2.10;;;;;;;25.60;83.55;94412.16;5094529;28;20111;-82
2023/07/28 08:36:30;;;;;;;7.90;2.40;;;;;;;24.29;93.71;94412.72;5093566;28;20044;-83
2023/07/28 08:38:55;;;;;;;4.15;2.00;;;;;;;24.95;89.43;94410.03;5093294;28;20051;-83
2023/07/28 08:41:21;;;;;;;5.85;2.42;;;;;;;25.75;82.73;94408.53;5076541;28;20034;-84
2023/07/28 08:43:46;;;;;;;10.02;2.53;;;;;;;25.21;79.78;94407.78;5094856;28;20027;-84
2023/07/28 08:46:34;;;;;;;10.05;2.53;;;;;;;25.84;78.57;94410.94;5093535;28;20059;-84
2023/07/28 08:48:59;;;;;;;6.68;2.38;;;;;;;25.13;81.82;94407.66;5093139;28;20024;-84
2023/07/28 08:54:08;;;;;;;4.93;2.25;;;;;;;24.62;85.45;94413.31;5093770;28;20051;-84
2023/07/28 08:56:34;;;;;;;7.45;2.60;;;;;;;22.45;99.20;94408.25;5094818;28;20036;-83
2023/07/28 08:58:59;;;;;;;5.00;2.50;;;;;;;21.85;100.00;94406.28;5076091;28;20039;-84
2023/07/28 09:01:25;;;;;;;5.57;2.13;;;;;;;22.83;100.00;94421.44;5094628;28;20507;-83
2023/07/28 09:04:10;;;;;;;10.55;2.22;;;;;;;22.79;98.03;94417.88;5094703;28;20040;-83
2023/07/28 09:06:36;;;;;;;10.65;3.17;;;;;;;23.35;94.07;94421.50;5093091;28;20417;-83
2023/07/28 09:09:01;;;;;;;6.85;2.20;;;;;;;23.66;91.12;94417.97;5092925;28;20130;-81
2023/07/28 09:11:27;;;;;;;4.68;2.15;;;;;;;24.08;85.17;94421.13;5093021;28;20383;-82
2023/07/28 09:13:54;;;;;;;10.63;2.40;;;;;;;24.23;91.56;94419.47;5106175;28;20096;-83
2023/07/28 09:19:23;;;;;;;8.38;2.83;;;;;;;25.05;81.50;94415.94;5078295;28;20046;-83
2023/07/28 09:22:01;;;;;;;5.07;2.03;;;;;;;24.32;84.02;94412.03;5076435;28;20453;-83
2023/07/28 09:24:32;;;;;;;7.30;2.60;;;;;;;24.07;85.37;94408.88;5076664;28;20035;-83
2023/07/28 09:26:57;;;;;;;6.90;2.35;;;;;;;24.21;87.46;94408.38;5059588;28;20742;-82
2023/07/28 09:29:23;;;;;;;4.78;2.30;;;;;;;23.93;91.41;94410.13;5094194;28;20035;-83
2023/07/28 09:32:08;;;;;;;7.72;2.50;;;;;;;23.44;96.06;94414.81;5076369;28;20059;-83
2023/07/28 09:34:52;;;;;;;8.60;2.80;;;;;;;23.62;89.16;94411.78;5076140;28;20028;-83
2023/07/28 09:37:19;;;;;;;7.80;2.40;;;;;;;24.75;92.37;94411.22;5076168;28;20058;-82
2023/07/28 09:39:44;;;;;;;5.60;2.40;;;;;;;25.08;86.55;94407.19;5093424;28;20043;-81
2023/07/28 09:44:54;;;;;;;13.98;2.60;;;;;;;25.63;80.35;94404.16;5082303;28;20093;-82
2023/07/28 09:47:19;;;;;;;9.95;2.42;;;;;;;24.52;74.57;94394.00;5080012;28;20043;-82
2023/07/28 09:50:05;;;;;;;10.15;2.60;;;;;;;25.12;83.31;94398.06;5097525;28;20078;-82
2023/07/28 09:52:37;;;;;;;6.63;2.35;;;;;;;25.15;78.44;94404.63;5079646;28;20089;-82
2023/07/28 09:55:08;;;;;;;6.07;2.40;;;;;;;25.06;83.44;94409.44;5080141;28;20036;-83
2023/07/28 09:57:36;;;;;;;9.43;2.47;;;;;;;25.02;75.79;94405.94;5079531;28;20128;-82
2023/07/28 10:00:02;;;;;;;6.15;2.30;;;;;;;24.64;79.41;94403.00;5079354;28;20032;-83
2023/07/28 10:02:28;;;;;;;6.20;2.20;;;;;;;24.86;80.59;94393.47;5079440;28;20059;-83
2023/07/28 10:04:54;;;;;;;7.25;2.40;;;;;;;25.14;75.10;94408.44;5075203;28;20420;-83
2023/07/28 10:10:09;;;;;;;12.15;2.22;;;;;;;24.55;79.77;94395.22;5095146;28;20092;-83
2023/07/28 10:12:48;;;;;;;4.75;2.17;;;;;;;24.55;78.61;94395.22;5099773;28;20023;-83
2023/07/28 10:15:19;;;;;;;5.38;2.20;;;;;;;24.43;77.02;94388.91;5118047;28;20357;-85
2023/07/28 10:17:49;;;;;;;9.10;2.20;;;;;;;24.48;73.23;94389.72;5117872;28;20057;-83
2023/07/28 10:20:34;;;;;;;7.15;2.30;;;;;;;24.84;71.78;94385.00;5098593;28;20035;-83
2023/07/28 10:23:17;;;;;;;6.53;2.50;;;;;;;24.80;71.85;94384.94;5097414;28;20340;-82
2023/07/28 10:25:44;;;;;;;3.40;2.03;;;;;;;25.28;71.55;94381.06;5110602;27;20106;-82
2023/07/28 10:28:31;;;;;;;4.57;1.95;;;;;;;25.26;64.38;94389.47;5119715;27;20412;-83
2023/07/28 10:31:16;;;;;;;6.82;2.15;;;;;;;24.97;68.57;94383.69;5137527;27;20027;-82
2023/07/28 10:34:03;;;;;;;5.93;1.90;;;;;;;24.63;73.86;94382.72;5119827;27;20767;-83
2023/07/28 10:36:56;;;;;;;7.72;2.05;;;;;;;25.25;68.95;94387.94;5137884;27;20031;-82
2023/07/28 10:39:21;;;;;;;7.30;2.38;;;;;;;25.36;70.66;94387.28;5102481;27;20421;-83
2023/07/28 10:42:08;;;;;;;7.43;2.67;;;;;;;25.18;65.26;94382.44;5137744;27;20121;-83
2023/07/28 10:44:34;;;;;;;9.50;2.28;;;;;;;24.96;64.15;94376.78;5111308;28;20031;-85
2023/07/28 10:47:00;;;;;;;5.32;2.20;;;;;;;25.06;61.45;94380.75;5094616;28;20118;-83
2023/07/28 10:52:09;;;;;;;6.28;2.20;;;;;;;24.94;60.88;94381.69;5121780;27;20097;-83
2023/07/28 10:54:35;;;;;;;26.58;5.70;;;;;;;24.94;61.46;94373.66;5136874;27;20027;-85
2023/07/28 10:59:50;;;;;;;4.40;2.30;;;;;;;24.65;67.18;94375.09;5121288;27;20071;-83
2023/07/28 11:02:16;;;;;;;4.85;2.20;;;;;;;25.16;63.36;94378.56;5118681;27;20023;-83
2023/07/28 11:05:19;;;;;;;8.73;2.20;;;;;;;25.29;67.09;94379.16;5107269;27;20398;-82
2023/07/28 11:10:29;;;;;;;5.82;2.45;;;;;;;24.91;58.41;94382.44;5080191;28;20070;-83
2023/07/28 11:12:57;;;;;;;5.93;2.33;;;;;;;25.81;67.59;94384.84;5078229;28;20433;-83
2023/07/28 11:15:24;;;;;;;5.70;2.22;;;;;;;26.49;60.55;94389.41;5078301;28;20540;-81
2023/07/28 11:17:50;;;;;;;4.20;1.80;;;;;;;26.62;53.90;94381.88;5096216;28;20062;-83
2023/07/28 11:20:16;;;;;;;6.00;2.30;;;;;;;26.30;55.09;94385.00;5100449;28;20073;-84
2023/07/28 11:22:47;;;;;;;5.95;2.45;;;;;;;26.84;57.11;94377.47;5113837;28;20059;-82
2023/07/28 11:25:12;;;;;;;4.50;2.22;;;;;;;27.21;52.07;94379.28;5080422;28;20038;-84
2023/07/28 11:27:39;;;;;;;4.43;1.85;;;;;;;27.06;52.45;94378.41;5095652;28;20110;-84
2023/07/28 11:30:07;;;;;;;3.05;1.85;;;;;;;27.87;50.65;94380.41;5076973;28;20076;-84
2023/07/28 11:32:35;;;;;;;5.85;2.30;;;;;;;27.60;55.52;94377.22;5061153;28;20059;-82
2023/07/28 11:37:53;;;;;;;5.93;2.00;;;;;;;27.73;52.23;94378.44;5080577;28;20484;-84
2023/07/28 11:40:21;;;;;;;4.70;2.00;;;;;;;28.09;48.81;94369.72;5099326;28;20036;-83
2023/07/28 11:43:05;;;;;;;4.35;2.05;;;;;;;27.71;52.58;94378.06;5093803;28;20050;-84
2023/07/28 11:45:31;;;;;;;7.03;2.35;;;;;;;27.01;53.04;94370.69;5095749;28;20036;-82
2023/07/28 11:48:05;;;;;;;4.25;2.50;;;;;;;27.76;52.83;94364.22;5113216;27;20031;-83
2023/07/28 11:50:36;;;;;;;3.75;1.98;;;;;;;27.89;51.38;94359.25;5097241;28;20024;-83
2023/07/28 11:53:01;;;;;;;8.60;2.30;;;;;;;27.44;48.01;94358.66;5098023;28;20031;-83
2023/07/28 11:55:28;;;;;;;7.25;2.28;;;;;;;26.74;48.99;94356.63;5098050;28;20046;-83
2023/07/28 11:58:12;;;;;;;3.53;2.03;;;;;;;27.00;49.26;94347.63;5076131;28;20063;-83
2023/07/28 12:00:40;;;;;;;8.60;2.60;;;;;;;26.96;49.30;94347.59;5094796;28;20092;-83
2023/07/28 12:03:14;;;;;;;3.65;1.98;;;;;;;27.71;49.54;94353.03;5077600;28;20036;-84
2023/07/28 12:05:43;;;;;;;3.53;2.10;;;;;;;27.77;50.86;94363.06;5076480;28;20024;-83
2023/07/28 12:08:27;;;;;;;5.60;2.20;;;;;;;28.13;48.93;94361.66;5076770;28;20406;-83
2023/07/28 12:13:56;;;;;;;4.50;2.45;;;;;;;28.09;50.61;94362.41;5094864;28;20073;-82
2023/07/28 12:16:43;;;;;;;4.60;2.03;;;;;;;27.75;55.44;94365.38;5086277;27;20042;-83
2023/07/28 12:19:09;;;;;;;4.13;2.08;;;;;;;27.98;54.08;94352.75;5117633;27;20039;-83
2023/07/28 12:21:53;;;;;;;4.35;1.95;;;;;;;27.29;58.46;94360.50;5117442;28;20039;-83
2023/07/28 12:24:18;;;;;;;3.15;1.88;;;;;;;28.42;54.32;94359.06;5135709;27;20026;-83
2023/07/28 12:26:48;;;;;;;5.93;2.42;;;;;;;27.45;57.59;94360.19;5117356;27;20027;-83
2023/07/28 12:29:14;;;;;;;4.38;2.10;;;;;;;28.81;54.29;94344.09;5117295;27;20105;-83
2023/07/28 12:31:39;;;;;;;5.38;2.17;;;;;;;28.32;55.87;94345.19;5117563;27;20443;-83
2023/07/28 12:34:05;;;;;;;6.43;2.53;;;;;;;29.18;54.03;94342.88;5117639;27;20042;-84
2023/07/28 12:36:30;;;;;;;5.90;2.00;;;;;;;28.64;53.74;94344.44;5135937;27;20036;-83
2023/07/28 12:38:55;;;;;;;6.93;2.33;;;;;;;28.07;55.76;94342.41;5135752;27;20035;-82
2023/07/28 12:41:21;;;;;;;4.07;2.10;;;;;;;27.12;59.53;94349.28;5117442;27;20452;-83
2023/07/28 12:43:46;;;;;;;5.07;2.20;;;;;;;27.82;58.89;94345.78;5116934;28;20022;-83
2023/07/28 12:46:30;;;;;;;4.32;2.30;;;;;;;27.43;57.17;94349.81;5119004;28;20448;-83
2023/07/28 12:48:56;;;;;;;9.02;2.25;;;;;;;27.13;60.54;94347.34;5097988;28;20186;-83
2023/07/28 12:51:21;;;;;;;4.53;2.40;;;;;;;27.63;55.92;94349.56;5097205;28;20126;-84
2023/07/28 12:53:47;;;;;;;3.88;2.30;;;;;;;27.43;55.10;94344.44;5079910;28;20421;-83
2023/07/28 12:56:12;;;;;;;4.57;2.20;;;;;;;27.06;53.35;94348.06;5080123;28;20026;-84
2023/07/28 12:58:37;;;;;;;6.45;2.38;;;;;;;27.61;52.87;94341.09;5096212;28;20030;-83
2023/07/28 13:01:21;;;;;;;5.68;2.00;;;;;;;27.15;55.38;94343.13;5096445;28;20444;-82
2023/07/28 13:03:47;;;;;;;8.27;2.42;;;;;;;26.67;58.65;94338.53;5096797;28;20043;-83
2023/07/28 13:09:15;;;;;;;4.25;2.10;;;;;;;28.12;57.17;94336.66;5085886;28;20105;-83